Time;durP1;ratioP1;P1;durP2;ratioP2;P2;SDS_P1;SDS_P2;PMS_P1;PMS_P2;Temp;Humidity;BMP_temperature;BMP_pressure;BME280_temperature;BME280_humidity;BME280_pressure;Samples;Min_cycle;Max_cycle;Signal;HPM_P1;HPM_P2
2021/04/16 00:01:33;;;;;;;11.97;3.33;;;;;;;3.92;87.32;101190.31;4962115;58;1134342;-78
2021/04/16 00:06:58;;;;;;;7.13;3.23;;;;;;;3.95;87.22;101197.20;4940570;58;1139064;-73
2021/04/16 00:12:23;;;;;;;8.63;2.63;;;;;;;3.92;87.12;101191.62;4939974;59;1134360;-74
2021/04/16 00:17:49;;;;;;;8.57;2.90;;;;;;;3.86;87.25;101188.77;4939840;59;1134356;-77
2021/04/16 00:23:15;;;;;;;9.63;2.20;;;;;;;3.89;87.18;101194.34;4940043;59;1134384;-75
2021/04/16 00:28:41;;;;;;;7.28;2.02;;;;;;;3.90;87.19;101188.20;4939704;59;1136570;-75
2021/04/16 00:34:07;;;;;;;6.27;3.03;;;;;;;3.85;87.05;101183.14;4939786;58;1134425;-76
2021/04/16 00:39:32;;;;;;;9.45;2.77;;;;;;;3.82;87.04;101186.33;4940026;58;1136197;-76
2021/04/16 00:44:57;;;;;;;9.90;2.27;;;;;;;3.85;87.11;101184.45;4939652;59;1136533;-75
2021/04/16 00:50:29;;;;;;;7.37;2.60;;;;;;;3.87;87.15;101186.55;4939660;59;1136412;-76
2021/04/16 00:55:56;;;;;;;11.70;3.70;;;;;;;3.85;87.13;101184.91;4939595;59;1134177;-76
2021/04/16 01:01:22;;;;;;;5.83;2.30;;;;;;;3.84;87.08;101185.36;4939336;59;1138411;-76
2021/04/16 01:06:48;;;;;;;9.10;3.53;;;;;;;3.86;87.12;101186.16;4939642;59;1136267;-75
2021/04/16 01:12:14;;;;;;;13.13;5.40;;;;;;;3.82;87.26;101180.64;4939887;58;1134311;-75
2021/04/16 01:17:40;;;;;;;22.20;9.63;;;;;;;3.80;87.23;101185.56;4939611;59;1136301;-78
2021/04/16 01:23:36;;;;;;;9.63;3.90;;;;;;;3.84;87.15;101186.67;4939491;59;1138321;-78
2021/04/16 01:29:01;;;;;;;8.40;3.15;;;;;;;3.85;87.05;101184.45;4939652;59;1136714;-78
2021/04/16 01:34:29;;;;;;;17.33;5.30;;;;;;;3.84;87.27;101182.75;4939811;59;1134589;-76
2021/04/16 01:39:55;;;;;;;9.30;3.60;;;;;;;3.81;86.98;101179.42;4939653;59;1136482;-77
2021/04/16 01:45:30;;;;;;;8.57;2.67;;;;;;;3.80;87.08;101169.87;4939637;59;1136440;-76
2021/04/16 01:50:56;;;;;;;4.33;2.30;;;;;;;3.74;87.02;101170.09;4939805;59;1134571;-78
2021/04/16 01:56:21;;;;;;;7.37;2.93;;;;;;;3.65;87.17;101166.09;4939675;59;1134536;-74
2021/04/16 02:01:47;;;;;;;6.90;3.10;;;;;;;3.65;87.19;101171.77;4940012;59;1136627;-75
2021/04/16 02:07:12;;;;;;;23.60;9.37;;;;;;;3.63;87.46;101168.36;4939693;59;1134249;-75
2021/04/16 02:12:39;;;;;;;10.53;2.87;;;;;;;3.62;87.49;101164.03;4939830;59;1136281;-77
2021/04/16 02:18:06;;;;;;;11.77;3.07;;;;;;;3.63;87.48;101161.82;4939700;59;1138514;-76
2021/04/16 02:23:32;;;;;;;6.73;2.33;;;;;;;3.65;87.56;101163.47;4940323;59;1138905;-73
2021/04/16 02:28:57;;;;;;;14.13;2.77;;;;;;;3.62;87.51;101157.50;4940410;59;1134524;-76
2021/04/16 02:34:26;;;;;;;6.73;3.23;;;;;;;3.61;87.49;101158.41;4940301;59;1136439;-78
2021/04/16 02:39:52;;;;;;;14.23;2.67;;;;;;;3.62;87.58;101154.42;4940217;59;1136452;-75
2021/04/16 02:45:18;;;;;;;8.25;2.90;;;;;;;3.57;87.53;101158.97;4939806;59;1136607;-79
2021/04/16 02:50:43;;;;;;;9.10;2.30;;;;;;;3.56;87.50;101157.72;4940363;59;1134618;-77
2021/04/16 02:56:08;;;;;;;8.70;2.53;;;;;;;3.59;87.50;101156.30;4939993;59;1136446;-75
2021/04/16 03:01:33;;;;;;;7.27;2.63;;;;;;;3.56;87.63;101155.11;4940458;59;1134394;-80
2021/04/16 03:06:59;;;;;;;5.97;1.93;;;;;;;3.53;87.52;101150.84;4940002;59;1134365;-78
2021/04/16 03:12:24;;;;;;;5.83;3.07;;;;;;;3.53;87.54;101159.99;4940046;59;1134297;-78
2021/04/16 03:17:49;;;;;;;10.45;3.22;;;;;;;3.49;87.76;101160.59;4940052;59;1136470;-75
2021/04/16 03:23:17;;;;;;;5.13;2.20;;;;;;;3.45;87.67;101156.38;4940013;59;1136719;-74
2021/04/16 03:28:43;;;;;;;7.37;4.60;;;;;;;3.47;87.74;101156.33;4940095;59;1136308;-79
2021/04/16 03:34:08;;;;;;;12.50;3.17;;;;;;;3.47;87.74;101158.48;4940082;59;1134246;-75
2021/04/16 03:39:33;;;;;;;4.97;1.60;;;;;;;3.44;87.75;101162.52;4940286;59;1136831;-78
2021/04/16 03:44:59;;;;;;;7.80;2.40;;;;;;;3.43;87.76;101164.73;4940001;59;1134614;-76
2021/04/16 03:50:29;;;;;;;6.33;1.90;;;;;;;3.44;87.76;101161.66;4939757;59;1136486;-78
2021/04/16 03:55:55;;;;;;;11.40;4.40;;;;;;;3.41;87.95;101164.39;4939881;58;1134517;-74
2021/04/16 04:01:21;;;;;;;6.03;2.40;;;;;;;3.38;87.83;101160.58;4939844;59;1136505;-75
2021/04/16 04:06:51;;;;;;;7.25;3.65;;;;;;;3.43;87.86;101161.27;4939951;59;1136517;-78
2021/04/16 04:12:17;;;;;;;11.67;2.70;;;;;;;3.37;87.74;101157.56;4940025;58;1134831;-77
2021/04/16 04:17:43;;;;;;;7.05;2.30;;;;;;;3.38;87.83;101159.27;4940082;59;1136502;-76
2021/04/16 04:23:10;;;;;;;12.63;3.67;;;;;;;3.38;87.84;101163.19;4939878;59;1136589;-79
2021/04/16 04:28:36;;;;;;;17.63;5.00;;;;;;;3.32;87.90;101166.91;4940298;59;1136608;-77
2021/04/16 04:34:01;;;;;;;10.13;3.87;;;;;;;3.31;87.93;101168.27;4939968;59;1136433;-76
2021/04/16 04:39:30;;;;;;;9.83;2.90;;;;;;;3.30;88.06;101164.80;4939459;58;1138602;-75
2021/04/16 04:44:56;;;;;;;18.80;3.30;;;;;;;3.34;88.13;101170.32;4939927;58;1135002;-76
2021/04/16 04:50:22;;;;;;;7.17;2.87;;;;;;;3.36;88.15;101184.16;4939975;59;1136473;-77
2021/04/16 04:55:46;;;;;;;9.15;2.60;;;;;;;3.41;88.09;101177.46;4939986;58;1134352;-77
2021/04/16 05:01:11;;;;;;;8.13;2.47;;;;;;;3.40;88.17;101163.98;4939842;59;1134254;-79
2021/04/16 05:06:37;;;;;;;7.43;3.27;;;;;;;3.38;88.16;101164.04;4939953;59;1138270;-75
2021/04/16 05:12:02;;;;;;;28.60;4.43;;;;;;;3.39;88.13;101169.67;4939897;59;1134557;-76
2021/04/16 05:17:27;;;;;;;14.00;4.87;;;;;;;3.38;88.19;101176.26;4939470;59;1136386;-74
2021/04/16 05:22:53;;;;;;;14.93;3.97;;;;;;;3.42;88.29;101183.09;4939540;59;1136234;-75
2021/04/16 05:28:18;;;;;;;13.40;3.42;;;;;;;3.44;88.49;101185.20;4939553;59;1136407;-74
2021/04/16 05:33:43;;;;;;;10.57;2.90;;;;;;;3.51;88.68;101182.77;4939632;59;1138825;-76
2021/04/16 05:39:08;;;;;;;11.37;2.47;;;;;;;3.53;88.71;101179.15;4939491;58;1136551;-73
2021/04/16 05:44:34;;;;;;;11.68;3.40;;;;;;;3.58;88.77;101178.98;4950873;59;1136519;-77
2021/04/16 05:49:59;;;;;;;7.67;2.70;;;;;;;3.65;89.08;101177.86;4931577;59;1138591;-80
2021/04/16 05:55:24;;;;;;;14.73;6.10;;;;;;;3.71;89.10;101172.82;4940375;59;1136391;-74
2021/04/16 06:00:50;;;;;;;27.13;6.53;;;;;;;3.80;89.25;101168.56;4940195;59;1136518;-82
2021/04/16 06:06:16;;;;;;;10.60;4.00;;;;;;;3.85;89.08;101170.06;4947000;58;1136853;-81
2021/04/16 06:11:41;;;;;;;10.05;2.85;;;;;;;3.93;88.87;101168.92;4966341;58;1136412;-80
2021/04/16 06:17:07;;;;;;;12.13;3.00;;;;;;;3.96;88.91;101172.28;4973532;58;1138594;-75
2021/04/16 06:22:32;;;;;;;7.37;1.97;;;;;;;4.03;88.99;101170.25;5029201;58;1138873;-78
2021/04/16 06:27:58;;;;;;;15.57;3.83;;;;;;;4.03;88.86;101161.09;5016205;58;1134402;-76
2021/04/16 06:33:33;;;;;;;14.07;3.23;;;;;;;4.00;88.81;101171.22;4979780;58;1138686;-74
2021/04/16 06:38:58;;;;;;;10.72;3.30;;;;;;;4.01;88.56;101170.77;4974558;58;1138403;-78
2021/04/16 06:44:26;;;;;;;9.10;2.93;;;;;;;4.01;88.67;101165.53;4997451;57;1136475;-75
2021/04/16 06:49:54;;;;;;;10.35;3.30;;;;;;;3.98;88.40;101169.56;4981198;58;1134522;-82
2021/04/16 06:55:41;;;;;;;8.60;2.80;;;;;;;3.96;88.57;101163.12;4979196;58;1136457;-75
2021/04/16 07:01:25;;;;;;;13.20;3.80;;;;;;;4.02;88.92;101168.08;4980689;56;1136910;-78
2021/04/16 07:06:55;;;;;;;13.62;2.92;;;;;;;4.08;88.76;101170.47;4955789;58;1138712;-77
2021/04/16 07:12:22;;;;;;;6.10;2.55;;;;;;;4.19;89.13;101171.33;4978050;58;1138317;-84
2021/04/16 07:17:49;;;;;;;8.23;2.67;;;;;;;4.30;89.47;101165.64;4940293;58;1134156;-77
2021/04/16 07:23:16;;;;;;;7.47;2.67;;;;;;;4.36;89.25;101168.87;4933148;57;1136531;-77
2021/04/16 07:28:48;;;;;;;6.40;3.40;;;;;;;4.35;89.04;101173.72;4935281;58;1136688;-81
2021/04/16 07:34:30;;;;;;;8.00;3.97;;;;;;;4.35;88.86;101166.31;4933347;58;1136724;-80
2021/04/16 07:40:09;;;;;;;11.12;1.92;;;;;;;4.36;88.83;101178.05;4933956;58;1136457;-73
2021/04/16 07:45:42;;;;;;;43.60;12.07;;;;;;;4.31;88.68;101179.98;4935280;58;1136452;-80
2021/04/16 07:51:10;;;;;;;19.03;7.47;;;;;;;4.31;88.88;101182.61;4931570;58;1140602;-82
2021/04/16 07:56:36;;;;;;;5.47;2.92;;;;;;;4.31;88.88;101198.77;4945465;58;1138905;-72
2021/04/16 08:02:06;;;;;;;9.13;3.23;;;;;;;4.33;89.11;101199.11;4929380;58;1136446;-72
2021/04/16 08:07:35;;;;;;;7.63;3.43;;;;;;;4.30;88.89;101202.30;4937249;58;1136562;-71
2021/04/16 08:13:10;;;;;;;6.60;2.70;;;;;;;4.32;88.88;101205.26;4942582;58;1136455;-78
2021/04/16 08:18:35;;;;;;;5.00;3.50;;;;;;;4.33;88.67;101208.27;4966730;58;1136961;-75
2021/04/16 08:24:19;;;;;;;7.40;3.23;;;;;;;4.40;88.99;101206.27;4957457;57;1134402;-76
2021/04/16 08:29:48;;;;;;;9.97;2.67;;;;;;;4.37;88.27;101209.02;4955573;57;1134396;-76
2021/04/16 08:35:26;;;;;;;11.57;3.10;;;;;;;4.30;88.34;101218.02;4956395;58;1136389;-76
2021/04/16 08:40:55;;;;;;;15.43;4.75;;;;;;;4.21;88.16;101217.94;4946221;58;1138745;-79
2021/04/16 08:46:45;;;;;;;61.93;33.93;;;;;;;4.14;88.26;101212.54;4952205;58;1136606;-75
2021/04/16 08:52:33;;;;;;;23.10;14.97;;;;;;;4.18;88.63;101214.98;4951170;58;1140462;-75
2021/04/16 08:58:08;;;;;;;21.73;10.67;;;;;;;4.24;88.97;101216.06;4813317;60;1140408;-74
2021/04/16 09:03:44;;;;;;;7.97;6.17;;;;;;;4.20;88.62;101218.40;4830747;59;1140782;-78
2021/04/16 09:09:14;;;;;;;47.60;21.90;;;;;;;4.22;88.82;101214.41;4829740;59;1136517;-76
2021/04/16 09:14:44;;;;;;;25.90;11.38;;;;;;;4.19;88.89;101218.45;4823173;59;1138534;-78
2021/04/16 09:20:09;;;;;;;69.93;28.23;;;;;;;4.15;89.14;101207.70;4800408;59;1138833;-77
2021/04/16 09:25:48;;;;;;;53.87;20.43;;;;;;;4.20;89.21;101216.23;4787859;60;1140568;-75
2021/04/16 09:31:30;;;;;;;120.67;47.83;;;;;;;4.25;89.35;101214.30;4781141;60;1140648;-76
2021/04/16 09:37:28;;;;;;;26.80;14.60;;;;;;;4.37;89.55;101206.39;4888493;59;1142832;-75
2021/04/16 09:43:13;;;;;;;27.73;12.67;;;;;;;4.39;89.57;101207.19;4763720;60;1140916;-81
2021/04/16 09:48:51;;;;;;;24.63;8.70;;;;;;;4.33;89.54;101197.80;4791116;60;1138501;-77
2021/04/16 09:54:23;;;;;;;9.97;6.23;;;;;;;4.40;89.69;101204.97;4779714;60;1138501;-79
2021/04/16 09:59:49;;;;;;;29.00;12.03;;;;;;;4.38;89.41;101207.64;4893853;59;1136465;-78
2021/04/16 10:05:28;;;;;;;14.05;8.80;;;;;;;4.41;89.43;101210.59;4902508;58;1138704;-81
2021/04/16 10:10:56;;;;;;;19.45;8.33;;;;;;;4.47;89.47;101206.39;4882881;59;1138951;-79
2021/04/16 10:16:26;;;;;;;19.17;7.80;;;;;;;4.43;89.58;101204.36;4740507;60;1136394;-77
2021/04/16 10:21:52;;;;;;;17.60;8.70;;;;;;;4.41;89.25;101205.36;4774463;59;1136795;-79
2021/04/16 10:46:41;;;;;;;120.80;52.48;;;;;;;4.49;89.53;101187.55;4933717;58;1136691;-78
2021/04/16 12:39:56;;;;;;;12.73;6.80;;;;;;;5.53;91.19;101133.97;4856331;59;1138463;-74
2021/04/16 12:45:22;;;;;;;18.23;6.60;;;;;;;5.64;91.06;101133.02;4857806;59;1138721;-76
2021/04/16 12:50:48;;;;;;;27.07;7.37;;;;;;;5.79;91.04;101138.00;4868974;59;1138861;-77
2021/04/16 12:56:20;;;;;;;24.47;7.13;;;;;;;5.88;90.68;101124.42;4925162;59;1138729;-78
2021/04/16 13:01:49;;;;;;;15.23;4.30;;;;;;;5.92;90.22;101120.30;4925470;59;1138515;-77
2021/04/16 13:07:14;;;;;;;14.17;3.63;;;;;;;5.97;90.14;101116.12;4925179;59;1138498;-74
2021/04/16 13:12:39;;;;;;;12.80;3.97;;;;;;;6.05;90.07;101110.50;4875427;59;1138559;-76
2021/04/16 13:18:20;;;;;;;17.07;5.97;;;;;;;6.15;90.12;101111.73;4924307;59;1138548;-77
2021/04/16 13:23:45;;;;;;;31.70;9.07;;;;;;;6.24;89.60;101113.47;4920352;58;1145199;-75
2021/04/16 13:29:10;;;;;;;11.13;2.97;;;;;;;6.31;89.35;101103.48;4964760;58;1138400;-77
2021/04/16 13:34:39;;;;;;;9.77;3.40;;;;;;;6.34;88.66;101100.24;4986169;58;1138495;-73
2021/04/16 13:40:06;;;;;;;12.10;4.50;;;;;;;6.39;88.56;101100.02;4985975;58;1136375;-78
2021/04/16 13:45:33;;;;;;;19.70;6.47;;;;;;;6.44;88.56;101099.76;4985613;58;1138567;-73
2021/04/16 13:50:58;;;;;;;11.95;4.12;;;;;;;6.49;88.45;101094.66;4986083;58;1138460;-75
2021/04/16 13:56:23;;;;;;;10.67;4.90;;;;;;;6.57;88.30;101088.53;4985715;58;1138644;-78
2021/04/16 14:01:49;;;;;;;18.52;6.15;;;;;;;6.63;88.34;101085.59;4983435;57;1138464;-81
2021/04/16 14:07:16;;;;;;;17.03;5.70;;;;;;;6.74;88.06;101083.71;5012348;58;1138741;-73
2021/04/16 14:12:43;;;;;;;11.75;3.37;;;;;;;6.84;87.90;101067.86;5004544;58;1138573;-78
2021/04/16 14:18:09;;;;;;;8.20;3.50;;;;;;;6.95;87.57;101065.95;4949630;58;1138298;-76
2021/04/16 14:23:35;;;;;;;13.77;4.17;;;;;;;7.00;86.76;101064.79;4958266;58;1136198;-76
2021/04/16 14:29:00;;;;;;;13.98;4.97;;;;;;;6.96;86.16;101068.51;4979119;58;1138794;-81
2021/04/16 14:34:33;;;;;;;14.07;4.27;;;;;;;6.97;86.27;101066.73;5009521;57;1138436;-75
2021/04/16 14:39:59;;;;;;;18.55;7.72;;;;;;;6.95;85.89;101064.64;5039845;57;1138689;-77
2021/04/16 14:45:29;;;;;;;18.67;5.00;;;;;;;6.95;86.07;101058.92;4980767;57;1138371;-78
2021/04/16 14:50:59;;;;;;;10.95;5.25;;;;;;;6.99;85.90;101050.41;5027990;58;1138863;-75
2021/04/16 14:56:25;;;;;;;28.97;10.00;;;;;;;7.06;86.20;101058.33;5029188;58;1138489;-79
2021/04/16 15:01:51;;;;;;;75.28;39.00;;;;;;;7.13;84.89;101064.12;5029320;58;1140691;-76
2021/04/16 15:07:20;;;;;;;16.45;6.47;;;;;;;7.16;84.66;101058.23;5029038;58;1140713;-76
2021/04/16 15:12:47;;;;;;;13.30;6.50;;;;;;;7.22;84.48;101055.24;5028902;58;1138570;-77
2021/04/16 15:18:14;;;;;;;98.13;54.70;;;;;;;7.20;84.31;101058.42;5002274;58;1138648;-78
2021/04/16 15:23:40;;;;;;;15.73;6.63;;;;;;;7.17;83.67;101061.71;4967963;58;1140749;-79
2021/04/16 15:29:10;;;;;;;99.23;46.07;;;;;;;7.09;83.29;101063.43;5010459;58;1138864;-77
2021/04/16 15:46:10;;;;;;;62.77;26.63;;;;;;;6.96;83.79;101075.55;4999768;58;1140769;-75
2021/04/16 15:51:31;;;;;;;60.37;25.67;;;;;;;6.93;84.22;101079.65;5033663;58;1140518;-76
2021/04/16 15:56:58;;;;;;;140.10;52.60;;;;;;;6.88;84.46;101077.25;5026350;57;1140580;-76
2021/04/16 16:02:23;;;;;;;117.83;46.40;;;;;;;6.86;84.55;101069.95;5028810;58;1142684;-77
2021/04/16 16:07:49;;;;;;;76.80;35.50;;;;;;;6.88;84.90;101068.52;5042036;58;1142828;-76
2021/04/16 16:13:35;;;;;;;42.00;19.73;;;;;;;6.87;85.04;101072.96;5013356;57;1140378;-75
2021/04/16 16:19:00;;;;;;;30.10;11.30;;;;;;;6.91;85.12;101081.51;4996264;58;1140606;-79
2021/04/16 16:24:25;;;;;;;9.37;5.10;;;;;;;6.89;84.43;101073.70;4972517;57;1140682;-79
2021/04/16 16:29:53;;;;;;;40.17;18.52;;;;;;;6.83;83.94;101078.45;4957400;58;1136772;-77
2021/04/16 16:35:23;;;;;;;33.43;13.93;;;;;;;6.80;83.94;101070.72;4938676;58;1140667;-80
2021/04/16 16:40:49;;;;;;;46.43;18.70;;;;;;;6.76;83.99;101075.28;4973609;58;1149603;-83
2021/04/16 16:46:21;;;;;;;37.90;14.60;;;;;;;6.68;83.97;101077.02;4929588;58;1140649;-75
2021/04/16 16:51:47;;;;;;;41.63;17.57;;;;;;;6.68;83.96;101080.11;4945389;58;1140652;-74
2021/04/16 16:57:17;;;;;;;37.65;14.07;;;;;;;6.65;84.06;101090.78;4951376;58;1140522;-84
2021/04/16 17:02:41;;;;;;;40.10;15.20;;;;;;;6.60;84.15;101080.50;4946101;58;1140864;-79
2021/04/16 17:08:07;;;;;;;37.00;13.53;;;;;;;6.61;84.13;101091.86;4948378;58;1140369;-82
2021/04/16 17:13:33;;;;;;;42.80;16.43;;;;;;;6.58;84.37;101088.92;4951121;57;1140777;-72
2021/04/16 17:18:58;;;;;;;186.03;57.70;;;;;;;6.54;84.50;101090.03;4975914;58;1140838;-70
2021/04/16 17:24:24;;;;;;;183.93;72.10;;;;;;;6.47;84.30;101086.01;4952200;58;1142987;-71
2021/04/16 17:29:52;;;;;;;658.23;411.53;;;;;;;6.37;84.52;101090.05;4972535;58;1142862;-71
2021/04/16 17:35:17;;;;;;;460.77;249.83;;;;;;;6.30;84.64;101093.44;4941771;58;1144969;-70
2021/04/16 17:40:43;;;;;;;634.00;275.53;;;;;;;6.23;84.71;101092.06;4973888;58;1144929;-71
2021/04/16 17:46:08;;;;;;;58.33;21.50;;;;;;;6.16;84.92;101100.31;5005510;57;1144735;-71
2021/04/16 17:51:36;;;;;;;100.00;39.63;;;;;;;6.12;85.25;101107.95;4975099;58;1140465;-70
2021/04/16 17:57:02;;;;;;;58.43;21.03;;;;;;;6.09;85.42;101107.66;4964442;58;1142670;-72
2021/04/16 18:02:26;;;;;;;34.48;14.75;;;;;;;6.07;85.49;101110.82;4964830;58;1140392;-70
2021/04/16 18:07:55;;;;;;;58.35;21.48;;;;;;;6.00;85.73;101122.08;4964255;58;1140958;-72
2021/04/16 18:13:21;;;;;;;71.20;25.63;;;;;;;5.96;85.88;101121.83;4952460;58;1140666;-75
2021/04/16 18:18:46;;;;;;;46.87;20.03;;;;;;;5.91;85.84;101125.16;4936934;58;1140560;-75
2021/04/16 18:24:39;;;;;;;19.03;9.10;;;;;;;5.85;86.07;101132.44;4955194;58;1140609;-76
2021/04/16 18:30:07;;;;;;;44.00;17.10;;;;;;;5.82;86.01;101128.64;4960012;58;1138524;-74
2021/04/16 18:35:33;;;;;;;62.83;19.00;;;;;;;5.79;86.03;101139.31;4975894;58;1140646;-76
2021/04/16 18:41:12;;;;;;;31.62;14.10;;;;;;;5.77;86.21;101142.47;4965580;58;1140698;-75
2021/04/16 18:46:40;;;;;;;26.50;10.77;;;;;;;5.71;86.36;101142.75;4938017;58;1140411;-77
2021/04/16 18:52:25;;;;;;;24.07;9.60;;;;;;;5.71;86.35;101146.69;4955644;58;1140603;-72
2021/04/16 18:57:49;;;;;;;20.60;9.07;;;;;;;5.63;86.52;101147.91;4959161;58;1139143;-74
2021/04/16 19:03:15;;;;;;;27.00;12.53;;;;;;;5.56;86.59;101146.95;4943025;58;1138884;-71
2021/04/16 19:08:40;;;;;;;16.73;6.47;;;;;;;5.45;86.49;101139.59;4942939;58;1140583;-71
2021/04/16 19:14:06;;;;;;;17.55;6.47;;;;;;;5.38;87.00;101143.86;4921548;58;1138971;-71
2021/04/16 19:19:32;;;;;;;16.10;6.27;;;;;;;5.34;87.12;101137.08;4928018;58;1138631;-70
2021/04/16 19:25:00;;;;;;;27.42;9.93;;;;;;;5.30;86.93;101131.97;4963245;58;1138502;-70
2021/04/16 19:30:30;;;;;;;15.30;6.67;;;;;;;5.29;86.99;101130.27;4909797;58;1138537;-70
2021/04/16 19:36:02;;;;;;;18.62;6.28;;;;;;;5.26;87.00;101129.55;4992602;57;1138803;-71
2021/04/16 19:41:30;;;;;;;45.87;25.60;;;;;;;5.15;87.28;101119.55;5012811;57;1138626;-71
2021/04/16 19:46:56;;;;;;;26.20;16.23;;;;;;;5.08;87.54;101115.50;5017226;57;1140612;-72
2021/04/16 19:53:26;;;;;;;95.80;63.90;;;;;;;5.04;87.80;101115.23;5012383;57;1140623;-72
2021/04/16 20:20:44;;;;;;;30.30;14.58;;;;;;;4.99;87.94;101119.86;4971227;58;1140516;-72
2021/04/16 20:26:22;;;;;;;184.63;67.00;;;;;;;5.07;87.89;101123.42;4971287;57;1141031;-72
2021/04/16 20:31:52;;;;;;;103.47;39.63;;;;;;;5.05;87.88;101127.42;4971391;57;1140613;-72
2021/04/16 20:37:21;;;;;;;27.00;11.10;;;;;;;5.03;87.71;101130.60;5027659;57;1142947;-73
2021/04/16 20:42:46;;;;;;;34.20;9.85;;;;;;;5.08;87.88;101126.44;5064650;57;1140561;-72
2021/04/16 20:48:15;;;;;;;41.90;18.30;;;;;;;5.06;87.83;101125.66;5065347;57;1138480;-72
2021/04/16 20:53:40;;;;;;;46.07;17.13;;;;;;;5.03;87.74;101130.60;5064593;57;1140666;-72
2021/04/16 20:59:07;;;;;;;30.90;10.03;;;;;;;5.04;87.61;101136.70;5063643;57;1141086;-71
2021/04/16 21:04:34;;;;;;;29.03;8.70;;;;;;;5.08;87.70;101135.16;5064388;57;1140550;-71
2021/04/16 21:09:59;;;;;;;23.70;8.33;;;;;;;5.06;87.64;101141.39;5065479;57;1138588;-73
2021/04/16 21:15:29;;;;;;;15.70;5.67;;;;;;;5.08;87.41;101135.62;5065079;57;1138452;-73
2021/04/16 21:20:57;;;;;;;20.60;6.33;;;;;;;5.08;87.45;101124.67;5065991;57;1139620;-72
2021/04/16 21:26:37;;;;;;;17.47;5.07;;;;;;;5.01;87.25;101128.51;5066175;57;1136891;-72
2021/04/16 21:32:26;;;;;;;45.57;23.57;;;;;;;4.96;87.20;101129.16;5066036;57;1138656;-71
2021/04/16 21:37:55;;;;;;;30.57;12.30;;;;;;;4.89;87.40;101138.20;5055141;57;1140760;-73
2021/04/16 21:43:23;;;;;;;23.02;7.05;;;;;;;4.88;87.39;101135.22;5020344;57;1138684;-72
2021/04/16 21:49:20;;;;;;;32.07;7.93;;;;;;;4.90;87.36;101141.22;5020236;57;1138798;-72
2021/04/16 21:54:48;;;;;;;24.30;8.40;;;;;;;4.97;87.29;101145.74;5016522;58;1138545;-71
2021/04/16 22:00:33;;;;;;;15.40;5.93;;;;;;;4.92;87.35;101138.07;5016901;58;1136539;-73
2021/04/16 22:06:03;;;;;;;22.95;7.67;;;;;;;4.93;87.28;101145.02;5014915;58;1138776;-72
2021/04/16 22:11:38;;;;;;;24.70;6.73;;;;;;;4.89;87.12;101138.20;5016091;58;1138776;-71
2021/04/16 22:17:08;;;;;;;37.40;11.88;;;;;;;4.97;87.50;101137.42;5018322;57;1138641;-71
2021/04/16 22:22:37;;;;;;;27.87;9.17;;;;;;;4.99;87.14;101136.89;5017603;58;1140411;-72
2021/04/16 22:28:07;;;;;;;26.67;7.43;;;;;;;4.96;86.91;101143.58;4988101;57;1138395;-72
2021/04/16 22:33:38;;;;;;;28.40;9.00;;;;;;;4.97;87.00;101143.13;4984932;58;1138434;-72
2021/04/16 22:39:11;;;;;;;35.70;8.47;;;;;;;4.92;86.88;101137.61;4989207;58;1138889;-72
2021/04/16 22:44:44;;;;;;;41.77;12.17;;;;;;;4.95;86.98;101148.42;4998788;58;1138506;-72
2021/04/16 22:50:21;;;;;;;46.05;12.00;;;;;;;4.98;87.26;101139.58;4998511;58;1140689;-72
2021/04/16 22:55:46;;;;;;;18.53;5.47;;;;;;;4.99;86.96;101137.35;4998506;58;1138622;-71
2021/04/16 23:01:15;;;;;;;11.33;5.17;;;;;;;4.93;86.68;101138.01;4998565;58;1138515;-71
2021/04/16 23:06:50;;;;;;;12.37;4.17;;;;;;;4.92;86.97;101131.06;4998509;58;1138620;-72
2021/04/16 23:12:31;;;;;;;15.80;4.43;;;;;;;4.86;86.76;101130.05;5000120;57;1136438;-72
2021/04/16 23:17:56;;;;;;;13.03;5.07;;;;;;;4.82;86.71;101140.72;4998683;58;1144838;-72
2021/04/16 23:23:34;;;;;;;17.07;4.73;;;;;;;4.78;86.77;101141.30;4998463;58;1138599;-72
2021/04/16 23:29:07;;;;;;;18.80;8.07;;;;;;;4.75;86.86;101139.27;4998861;58;1136572;-72
2021/04/16 23:34:31;;;;;;;14.47;5.43;;;;;;;4.76;86.92;101140.52;4998618;58;1138738;-72
2021/04/16 23:39:56;;;;;;;23.97;7.70;;;;;;;4.76;86.89;101130.48;5006917;57;1141773;-72
2021/04/16 23:45:21;;;;;;;41.10;11.57;;;;;;;4.71;87.02;101133.33;5040631;57;1136447;-72
2021/04/16 23:50:47;;;;;;;32.10;10.30;;;;;;;4.75;87.01;101136.19;5040313;57;1140555;-72
2021/04/16 23:56:13;;;;;;;17.40;6.73;;;;;;;4.88;87.46;101121.66;5040380;57;1140373;-71
